Time;durP1;ratioP1;P1;durP2;ratioP2;P2;SDS_P1;SDS_P2;PMS_P1;PMS_P2;Temp;Humidity;BMP_temperature;BMP_pressure;BME280_temperature;BME280_humidity;BME280_pressure;Samples;Min_cycle;Max_cycle;Signal;HPM_P1;HPM_P2
2023/12/02 00:00:14;;;;;;;;;;;;;;;;;;5135706;27;843;-71
2023/12/02 00:02:40;;;;;;;;;;;;;;;;;;5135093;27;1937;-70
2023/12/02 00:05:06;;;;;;;;;;;;;;;;;;5135366;27;820;-70
2023/12/02 00:07:31;;;;;;;;;;;;;;;;;;5116273;27;1349;-70
2023/12/02 00:09:56;;;;;;;;;;;;;;;;;;5116546;27;1307;-71
2023/12/02 00:12:22;;;;;;;;;;;;;;;;;;5116078;27;1558;-71
2023/12/02 00:14:47;;;;;;;;;;;;;;;;;;5134325;27;1910;-71
2023/12/02 00:17:12;;;;;;;;;;;;;;;;;;5111690;27;1282;-71
2023/12/02 00:19:38;;;;;;;;;;;;;;;;;;5130130;27;1168;-71
2023/12/02 00:22:05;;;;;;;;;;;;;;;;;;5131837;27;1144;-69
2023/12/02 00:24:31;;;;;;;;;;;;;;;;;;5134518;27;855;-71
2023/12/02 00:26:56;;;;;;;;;;;;;;;;;;5134622;27;832;-71
2023/12/02 00:29:21;;;;;;;;;;;;;;;;;;5133976;27;914;-71
2023/12/02 00:31:47;;;;;;;;;;;;;;;;;;5130381;27;1258;-71
2023/12/02 00:34:12;;;;;;;;;;;;;;;;;;5130788;28;1234;-71
2023/12/02 00:36:37;;;;;;;;;;;;;;;;;;5130522;28;1905;-71
2023/12/02 00:39:02;;;;;;;;;;;;;;;;;;5130638;27;1085;-71
2023/12/02 00:41:28;;;;;;;;;;;;;;;;;;5129340;27;1132;-70
2023/12/02 00:43:53;;;;;;;;;;;;;;;;;;5095008;28;1294;-70
2023/12/02 00:46:18;;;;;;;;;;;;;;;;;;5130539;28;1171;-71
2023/12/02 00:48:43;;;;;;;;;;;;;;;;;;5111426;28;1374;-71
2023/12/02 00:51:09;;;;;;;;;;;;;;;;;;5130296;28;1159;-70
2023/12/02 00:53:34;;;;;;;;;;;;;;;;;;5115504;28;1139;-70
2023/12/02 00:55:59;;;;;;;;;;;;;;;;;;5116089;28;1909;-70
2023/12/02 00:58:24;;;;;;;;;;;;;;;;;;5116129;28;903;-71
2023/12/02 01:00:50;;;;;;;;;;;;;;;;;;5134781;28;994;-71
2023/12/02 01:03:15;;;;;;;;;;;;;;;;;;5134004;28;900;-71
2023/12/02 01:05:40;;;;;;;;;;;;;;;;;;5115825;27;982;-71
2023/12/02 01:08:06;;;;;;;;;;;;;;;;;;5134591;28;824;-70
2023/12/02 01:10:34;;;;;;;;;;;;;;;;;;5115977;28;1286;-71
2023/12/02 01:12:59;;;;;;;;;;;;;;;;;;5134681;28;958;-70
2023/12/02 01:15:24;;;;;;;;;;;;;;;;;;5116332;28;1898;-71
2023/12/02 01:17:50;;;;;;;;;;;;;;;;;;5134904;27;796;-71
2023/12/02 01:20:15;;;;;;;;;;;;;;;;;;5134355;27;851;-70
2023/12/02 01:22:40;;;;;;;;;;;;;;;;;;5134029;27;891;-71
2023/12/02 01:25:06;;;;;;;;;;;;;;;;;;5134941;27;781;-71
2023/12/02 01:27:31;;;;;;;;;;;;;;;;;;5133218;27;1183;-71
2023/12/02 01:29:57;;;;;;;;;;;;;;;;;;5110733;28;1148;-69
2023/12/02 01:32:22;;;;;;;;;;;;;;;;;;5130604;28;1242;-71
2023/12/02 01:34:47;;;;;;;;;;;;;;;;;;5111204;28;1961;-71
2023/12/02 01:37:13;;;;;;;;;;;;;;;;;;5111704;27;1191;-66
2023/12/02 01:39:38;;;;;;;;;;;;;;;;;;5112034;28;1301;-67
2023/12/02 01:42:04;;;;;;;;;;;;;;;;;;5132055;27;1178;-67
2023/12/02 01:44:29;;;;;;;;;;;;;;;;;;5133687;27;1191;-66
2023/12/02 01:46:55;;;;;;;;;;;;;;;;;;5115579;27;1228;-67
2023/12/02 01:49:21;;;;;;;;;;;;;;;;;;5093689;27;1184;-68
2023/12/02 01:51:47;;;;;;;;;;;;;;;;;;5134093;27;1210;-67
2023/12/02 01:54:12;;;;;;;;;;;;;;;;;;5137618;27;824;-68
2023/12/02 01:56:37;;;;;;;;;;;;;;;;;;5137505;27;1885;-66
2023/12/02 01:59:03;;;;;;;;;;;;;;;;;;5118628;27;1450;-67
2023/12/02 02:01:29;;;;;;;;;;;;;;;;;;5137075;27;851;-67
2023/12/02 02:03:55;;;;;;;;;;;;;;;;;;5118503;27;1396;-67
2023/12/02 02:06:21;;;;;;;;;;;;;;;;;;5116146;27;1243;-66
2023/12/02 02:08:46;;;;;;;;;;;;;;;;;;5114565;27;1132;-67
2023/12/02 02:11:11;;;;;;;;;;;;;;;;;;5135732;27;1302;-67
2023/12/02 02:13:36;;;;;;;;;;;;;;;;;;5137417;27;835;-67
2023/12/02 02:16:03;;;;;;;;;;;;;;;;;;5136950;27;1902;-67
2023/12/02 02:18:28;;;;;;;;;;;;;;;;;;5118357;27;1341;-71
2023/12/02 02:20:54;;;;;;;;;;;;;;;;;;5136855;27;979;-71
2023/12/02 02:23:20;;;;;;;;;;;;;;;;;;5118551;27;1280;-71
2023/12/02 02:25:45;;;;;;;;;;;;;;;;;;5118547;27;1675;-70
2023/12/02 02:28:10;;;;;;;;;;;;;;;;;;5136671;27;858;-70
2023/12/02 02:30:36;;;;;;;;;;;;;;;;;;5136908;27;911;-71
2023/12/02 02:33:01;;;;;;;;;;;;;;;;;;5118061;27;1112;-70
2023/12/02 02:35:27;;;;;;;;;;;;;;;;;;5136419;27;1975;-71
2023/12/02 02:37:53;;;;;;;;;;;;;;;;;;5136794;27;926;-70
2023/12/02 02:40:19;;;;;;;;;;;;;;;;;;5136556;27;903;-71
2023/12/02 02:42:44;;;;;;;;;;;;;;;;;;5136375;27;830;-71
2023/12/02 02:45:09;;;;;;;;;;;;;;;;;;5118138;27;843;-71
2023/12/02 02:47:35;;;;;;;;;;;;;;;;;;5118251;27;1270;-71
2023/12/02 02:50:00;;;;;;;;;;;;;;;;;;5118194;27;850;-71
2023/12/02 02:52:25;;;;;;;;;;;;;;;;;;5100326;27;1319;-71
2023/12/02 02:54:50;;;;;;;;;;;;;;;;;;5117780;27;1902;-71
2023/12/02 02:57:19;;;;;;;;;;;;;;;;;;5117573;27;1274;-71
2023/12/02 02:59:44;;;;;;;;;;;;;;;;;;5136075;27;907;-71
2023/12/02 03:02:09;;;;;;;;;;;;;;;;;;5117741;27;1010;-71
2023/12/02 03:04:35;;;;;;;;;;;;;;;;;;5118250;27;1014;-71
2023/12/02 03:07:00;;;;;;;;;;;;;;;;;;5136425;27;1449;-71
2023/12/02 03:09:25;;;;;;;;;;;;;;;;;;5136321;27;785;-71
2023/12/02 03:11:51;;;;;;;;;;;;;;;;;;5136235;27;919;-71
2023/12/02 03:14:17;;;;;;;;;;;;;;;;;;5135873;27;844;-71
2023/12/02 03:16:42;;;;;;;;;;;;;;;;;;5118164;27;1890;-71
2023/12/02 03:19:08;;;;;;;;;;;;;;;;;;5136630;27;875;-71
2023/12/02 03:21:33;;;;;;;;;;;;;;;;;;5117223;27;1301;-71
2023/12/02 03:23:59;;;;;;;;;;;;;;;;;;5135593;27;859;-71
2023/12/02 03:26:24;;;;;;;;;;;;;;;;;;5118037;27;1313;-71
2023/12/02 03:28:49;;;;;;;;;;;;;;;;;;5136436;27;906;-71
2023/12/02 03:31:15;;;;;;;;;;;;;;;;;;5135855;27;941;-71
2023/12/02 03:33:40;;;;;;;;;;;;;;;;;;5099933;27;772;-72
2023/12/02 03:36:05;;;;;;;;;;;;;;;;;;5117426;27;1902;-72
2023/12/02 03:38:31;;;;;;;;;;;;;;;;;;5135885;27;851;-71
2023/12/02 03:40:56;;;;;;;;;;;;;;;;;;5117089;27;931;-71
2023/12/02 03:43:21;;;;;;;;;;;;;;;;;;5135415;27;931;-67
2023/12/02 03:45:46;;;;;;;;;;;;;;;;;;5117167;27;872;-67
2023/12/02 03:48:12;;;;;;;;;;;;;;;;;;5135009;27;977;-67
2023/12/02 03:50:37;;;;;;;;;;;;;;;;;;5135593;27;911;-71
2023/12/02 03:53:02;;;;;;;;;;;;;;;;;;5116623;27;1782;-71
2023/12/02 03:55:28;;;;;;;;;;;;;;;;;;5135193;27;1963;-71
2023/12/02 03:57:53;;;;;;;;;;;;;;;;;;5116991;27;848;-71
2023/12/02 04:00:19;;;;;;;;;;;;;;;;;;5135133;27;863;-66
2023/12/02 04:02:45;;;;;;;;;;;;;;;;;;5134983;27;886;-71
2023/12/02 04:05:10;;;;;;;;;;;;;;;;;;5116158;27;1313;-71
2023/12/02 04:07:36;;;;;;;;;;;;;;;;;;5135306;27;836;-71
2023/12/02 04:10:02;;;;;;;;;;;;;;;;;;5135314;27;851;-71
2023/12/02 04:12:28;;;;;;;;;;;;;;;;;;5116640;27;1577;-71
2023/12/02 04:14:53;;;;;;;;;;;;;;;;;;5134854;27;1950;-70
2023/12/02 04:17:19;;;;;;;;;;;;;;;;;;5135150;27;946;-70
2023/12/02 04:19:44;;;;;;;;;;;;;;;;;;5134781;27;832;-70
2023/12/02 04:22:09;;;;;;;;;;;;;;;;;;5134979;27;827;-71
2023/12/02 04:24:34;;;;;;;;;;;;;;;;;;5135358;27;796;-71
2023/12/02 04:27:00;;;;;;;;;;;;;;;;;;5116501;28;1131;-71
2023/12/02 04:29:25;;;;;;;;;;;;;;;;;;5116427;28;875;-71
2023/12/02 04:31:50;;;;;;;;;;;;;;;;;;5115972;28;907;-71
2023/12/02 04:34:15;;;;;;;;;;;;;;;;;;5116436;28;1401;-71
2023/12/02 04:36:43;;;;;;;;;;;;;;;;;;5134644;28;1968;-71
2023/12/02 04:39:11;;;;;;;;;;;;;;;;;;5134992;28;848;-71
2023/12/02 04:41:36;;;;;;;;;;;;;;;;;;5134772;28;949;-71
2023/12/02 04:44:01;;;;;;;;;;;;;;;;;;5134489;28;1034;-71
2023/12/02 04:46:27;;;;;;;;;;;;;;;;;;5134586;28;1057;-70
2023/12/02 04:48:52;;;;;;;;;;;;;;;;;;5134930;28;1002;-67
2023/12/02 04:51:17;;;;;;;;;;;;;;;;;;5134810;28;884;-67
2023/12/02 04:53:43;;;;;;;;;;;;;;;;;;5134498;28;887;-67
2023/12/02 04:56:12;;;;;;;;;;;;;;;;;;5134868;28;1909;-67
2023/12/02 04:58:37;;;;;;;;;;;;;;;;;;5116244;28;1555;-67
2023/12/02 05:01:04;;;;;;;;;;;;;;;;;;5115979;28;1178;-66
2023/12/02 05:03:30;;;;;;;;;;;;;;;;;;5129744;27;1183;-66
2023/12/02 05:05:55;;;;;;;;;;;;;;;;;;5129716;28;1175;-66
2023/12/02 05:08:20;;;;;;;;;;;;;;;;;;5111525;28;1179;-67
2023/12/02 05:10:45;;;;;;;;;;;;;;;;;;5111312;28;1238;-67
2023/12/02 05:13:11;;;;;;;;;;;;;;;;;;5129989;27;1215;-67
2023/12/02 05:15:36;;;;;;;;;;;;;;;;;;5093165;28;1913;-67
2023/12/02 05:18:02;;;;;;;;;;;;;;;;;;5133905;27;1214;-67
2023/12/02 05:20:27;;;;;;;;;;;;;;;;;;5133910;27;1214;-67
2023/12/02 05:22:53;;;;;;;;;;;;;;;;;;5134209;27;1151;-67
2023/12/02 05:25:19;;;;;;;;;;;;;;;;;;5133338;27;1253;-67
2023/12/02 05:27:44;;;;;;;;;;;;;;;;;;5133029;27;1278;-67
2023/12/02 05:30:12;;;;;;;;;;;;;;;;;;5115302;27;1387;-67
2023/12/02 05:32:37;;;;;;;;;;;;;;;;;;5114944;27;1405;-66
2023/12/02 05:35:03;;;;;;;;;;;;;;;;;;5137464;27;1980;-67
2023/12/02 05:37:28;;;;;;;;;;;;;;;;;;5137852;27;894;-66
2023/12/02 05:39:54;;;;;;;;;;;;;;;;;;5119293;27;986;-66
2023/12/02 05:42:19;;;;;;;;;;;;;;;;;;5138027;27;895;-68
2023/12/02 05:44:44;;;;;;;;;;;;;;;;;;5119110;27;919;-67
2023/12/02 05:47:10;;;;;;;;;;;;;;;;;;5137771;27;886;-66
2023/12/02 05:49:35;;;;;;;;;;;;;;;;;;5137833;27;832;-67
2023/12/02 05:52:01;;;;;;;;;;;;;;;;;;5137751;27;1095;-66
2023/12/02 05:54:26;;;;;;;;;;;;;;;;;;5137843;27;930;-71
2023/12/02 05:56:54;;;;;;;;;;;;;;;;;;5137518;27;1963;-70
2023/12/02 05:59:20;;;;;;;;;;;;;;;;;;5136239;27;1191;-70
2023/12/02 06:01:45;;;;;;;;;;;;;;;;;;5133398;27;1120;-70
2023/12/02 06:04:10;;;;;;;;;;;;;;;;;;5135899;27;1230;-71
2023/12/02 06:06:36;;;;;;;;;;;;;;;;;;5137654;27;982;-70
2023/12/02 06:09:01;;;;;;;;;;;;;;;;;;5137980;27;808;-71
2023/12/02 06:11:26;;;;;;;;;;;;;;;;;;5138000;27;999;-71
2023/12/02 06:13:51;;;;;;;;;;;;;;;;;;5120128;27;1509;-71
2023/12/02 06:16:17;;;;;;;;;;;;;;;;;;5137430;27;1897;-71
2023/12/02 06:18:42;;;;;;;;;;;;;;;;;;5138567;27;856;-71
2023/12/02 06:21:07;;;;;;;;;;;;;;;;;;5119831;27;911;-72
2023/12/02 06:23:32;;;;;;;;;;;;;;;;;;5136832;27;974;-71
2023/12/02 06:25:59;;;;;;;;;;;;;;;;;;5101619;27;1219;-71
2023/12/02 06:28:24;;;;;;;;;;;;;;;;;;5135985;27;864;-71
2023/12/02 06:30:50;;;;;;;;;;;;;;;;;;5136990;27;875;-71
2023/12/02 06:33:15;;;;;;;;;;;;;;;;;;5118319;27;1333;-72
2023/12/02 06:35:40;;;;;;;;;;;;;;;;;;5136867;27;1928;-70
2023/12/02 06:38:06;;;;;;;;;;;;;;;;;;5137548;27;812;-70
2023/12/02 06:40:31;;;;;;;;;;;;;;;;;;5137213;27;998;-70
2023/12/02 06:42:56;;;;;;;;;;;;;;;;;;5137650;27;904;-67
2023/12/02 06:45:21;;;;;;;;;;;;;;;;;;5136707;27;875;-67
2023/12/02 06:47:47;;;;;;;;;;;;;;;;;;5136966;27;895;-67
2023/12/02 06:50:12;;;;;;;;;;;;;;;;;;5136484;27;990;-68
2023/12/02 06:52:37;;;;;;;;;;;;;;;;;;5118040;27;1234;-67
2023/12/02 06:55:03;;;;;;;;;;;;;;;;;;5136175;27;1889;-67
2023/12/02 06:57:29;;;;;;;;;;;;;;;;;;5136115;27;906;-67
2023/12/02 06:59:54;;;;;;;;;;;;;;;;;;5135944;27;1057;-67
2023/12/02 07:02:19;;;;;;;;;;;;;;;;;;5136032;27;851;-67
2023/12/02 07:04:48;;;;;;;;;;;;;;;;;;5116006;27;1204;-67
2023/12/02 07:07:13;;;;;;;;;;;;;;;;;;5117175;27;1194;-67
2023/12/02 07:09:38;;;;;;;;;;;;;;;;;;5136148;27;883;-71
2023/12/02 07:12:04;;;;;;;;;;;;;;;;;;5117880;27;1548;-71
2023/12/02 07:14:29;;;;;;;;;;;;;;;;;;5117719;27;1285;-71
2023/12/02 07:16:54;;;;;;;;;;;;;;;;;;5118231;27;1905;-71
2023/12/02 07:19:20;;;;;;;;;;;;;;;;;;5118053;27;864;-72
2023/12/02 07:21:45;;;;;;;;;;;;;;;;;;5135583;27;1223;-72
2023/12/02 07:24:10;;;;;;;;;;;;;;;;;;5135962;27;883;-71
2023/12/02 07:26:36;;;;;;;;;;;;;;;;;;5136244;27;847;-70
2023/12/02 07:29:01;;;;;;;;;;;;;;;;;;5136192;27;890;-71
2023/12/02 07:31:27;;;;;;;;;;;;;;;;;;5135698;27;868;-70
2023/12/02 07:33:52;;;;;;;;;;;;;;;;;;5116995;27;879;-71
2023/12/02 07:36:18;;;;;;;;;;;;;;;;;;5135479;27;1898;-71
2023/12/02 07:38:43;;;;;;;;;;;;;;;;;;5117044;27;860;-71
2023/12/02 07:41:08;;;;;;;;;;;;;;;;;;5117385;27;1467;-71
2023/12/02 07:43:34;;;;;;;;;;;;;;;;;;5135263;27;899;-71
2023/12/02 07:45:59;;;;;;;;;;;;;;;;;;5116980;27;1378;-71
2023/12/02 07:48:25;;;;;;;;;;;;;;;;;;5134943;27;1314;-71
2023/12/02 07:50:50;;;;;;;;;;;;;;;;;;5135599;27;1068;-70
2023/12/02 07:53:15;;;;;;;;;;;;;;;;;;5134914;27;983;-70
2023/12/02 07:55:43;;;;;;;;;;;;;;;;;;5116150;27;1905;-71
2023/12/02 07:58:08;;;;;;;;;;;;;;;;;;5135454;27;871;-71
2023/12/02 08:00:34;;;;;;;;;;;;;;;;;;5134785;27;1215;-70
2023/12/02 08:02:59;;;;;;;;;;;;;;;;;;5112225;27;1216;-71
2023/12/02 08:05:24;;;;;;;;;;;;;;;;;;5130540;27;1168;-72
2023/12/02 08:07:51;;;;;;;;;;;;;;;;;;5130531;27;1267;-71
2023/12/02 08:10:16;;;;;;;;;;;;;;;;;;5131068;27;1184;-72
2023/12/02 08:12:42;;;;;;;;;;;;;;;;;;5111787;27;1239;-72
2023/12/02 08:15:07;;;;;;;;;;;;;;;;;;5112377;27;1965;-73
2023/12/02 08:17:33;;;;;;;;;;;;;;;;;;5130786;27;1155;-71
2023/12/02 08:20:02;;;;;;;;;;;;;;;;;;5095289;27;1354;-71
2023/12/02 08:22:31;;;;;;;;;;;;;;;;;;5111938;27;1435;-71
2023/12/02 08:24:56;;;;;;;;;;;;;;;;;;5112255;28;1188;-72
2023/12/02 08:27:22;;;;;;;;;;;;;;;;;;5130934;27;1148;-72
2023/12/02 08:29:47;;;;;;;;;;;;;;;;;;5130904;27;1143;-73
2023/12/02 08:32:12;;;;;;;;;;;;;;;;;;5128527;28;1100;-73
2023/12/02 08:34:37;;;;;;;;;;;;;;;;;;5132418;27;1202;-72
2023/12/02 08:37:03;;;;;;;;;;;;;;;;;;5116160;28;1901;-73
2023/12/02 08:39:28;;;;;;;;;;;;;;;;;;5116267;28;1487;-71
2023/12/02 08:41:53;;;;;;;;;;;;;;;;;;5134784;28;828;-72
2023/12/02 08:44:20;;;;;;;;;;;;;;;;;;5135282;27;914;-73
2023/12/02 08:46:45;;;;;;;;;;;;;;;;;;5115786;28;842;-73
2023/12/02 08:49:10;;;;;;;;;;;;;;;;;;5116147;28;1352;-72
2023/12/02 08:51:41;;;;;;;;;;;;;;;;;;5136507;27;903;-73
2023/12/02 08:54:09;;;;;;;;;;;;;;;;;;5121158;27;839;-73
2023/12/02 08:56:35;;;;;;;;;;;;;;;;;;5103733;27;1906;-73
2023/12/02 08:59:00;;;;;;;;;;;;;;;;;;5120054;27;1233;-72
2023/12/02 09:01:26;;;;;;;;;;;;;;;;;;5120598;27;1219;-73
2023/12/02 09:03:56;;;;;;;;;;;;;;;;;;5138742;27;887;-72
2023/12/02 09:06:22;;;;;;;;;;;;;;;;;;5138006;27;1148;-73
2023/12/02 09:08:47;;;;;;;;;;;;;;;;;;5118013;27;848;-73
2023/12/02 09:11:13;;;;;;;;;;;;;;;;;;5119973;27;907;-72
2023/12/02 09:13:48;;;;;;;;;;;;;;;;;;5138650;27;946;-73
2023/12/02 09:16:25;;;;;;;;;;;;;;;;;;5120313;27;1905;-73
2023/12/02 09:18:53;;;;;;;;;;;;;;;;;;5138294;27;886;-72
2023/12/02 09:21:21;;;;;;;;;;;;;;;;;;5138293;27;860;-72
2023/12/02 09:23:50;;;;;;;;;;;;;;;;;;5137922;27;875;-73
2023/12/02 09:26:29;;;;;;;;;;;;;;;;;;5137794;27;950;-72
2023/12/02 09:28:55;;;;;;;;;;;;;;;;;;5119452;27;1366;-72
2023/12/02 09:31:20;;;;;;;;;;;;;;;;;;5138084;27;990;-72
2023/12/02 09:33:48;;;;;;;;;;;;;;;;;;5119131;27;1454;-72
2023/12/02 09:36:31;;;;;;;;;;;;;;;;;;5119190;27;1959;-72
2023/12/02 09:39:16;;;;;;;;;;;;;;;;;;5137747;27;919;-72
2023/12/02 09:41:55;;;;;;;;;;;;;;;;;;5085083;27;1223;-73
2023/12/02 09:44:28;;;;;;;;;;;;;;;;;;5137210;27;886;-73
2023/12/02 09:47:02;;;;;;;;;;;;;;;;;;5138692;27;923;-73
2023/12/02 09:49:30;;;;;;;;;;;;;;;;;;5138520;27;1333;-72
2023/12/02 09:52:23;;;;;;;;;;;;;;;;;;5138843;27;985;-73
2023/12/02 09:54:57;;;;;;;;;;;;;;;;;;5138102;27;1966;-73
2023/12/02 09:57:32;;;;;;;;;;;;;;;;;;5138336;27;977;-72
2023/12/02 09:59:57;;;;;;;;;;;;;;;;;;5138032;27;867;-73
2023/12/02 10:02:45;;;;;;;;;;;;;;;;;;5137986;27;951;-72
2023/12/02 10:05:12;;;;;;;;;;;;;;;;;;5124281;27;1050;-72
2023/12/02 10:07:57;;;;;;;;;;;;;;;;;;5138261;27;890;-72
2023/12/02 10:10:25;;;;;;;;;;;;;;;;;;5118833;27;1395;-72
2023/12/02 10:13:02;;;;;;;;;;;;;;;;;;5137877;27;914;-72
2023/12/02 10:15:28;;;;;;;;;;;;;;;;;;5138106;27;1959;-72
2023/12/02 10:18:05;;;;;;;;;;;;;;;;;;5119721;27;1305;-73
2023/12/02 10:20:32;;;;;;;;;;;;;;;;;;5137161;27;927;-71
2023/12/02 10:23:01;;;;;;;;;;;;;;;;;;5136416;27;859;-71
2023/12/02 10:25:33;;;;;;;;;;;;;;;;;;5119199;27;1576;-72
2023/12/02 10:28:05;;;;;;;;;;;;;;;;;;5137375;27;856;-72
2023/12/02 10:30:33;;;;;;;;;;;;;;;;;;5136854;27;985;-71
2023/12/02 10:33:02;;;;;;;;;;;;;;;;;;5136802;27;997;-73
2023/12/02 10:35:34;;;;;;;;;;;;;;;;;;5118100;27;1928;-73
2023/12/02 10:38:11;;;;;;;;;;;;;;;;;;5137259;27;887;-73
2023/12/02 10:40:36;;;;;;;;;;;;;;;;;;5137242;27;812;-73
2023/12/02 10:43:08;;;;;;;;;;;;;;;;;;5136394;27;1091;-72
2023/12/02 10:45:33;;;;;;;;;;;;;;;;;;5136595;27;847;-72
2023/12/02 10:47:59;;;;;;;;;;;;;;;;;;5136733;27;942;-72
2023/12/02 10:50:26;;;;;;;;;;;;;;;;;;5118051;27;1127;-72
2023/12/02 10:53:03;;;;;;;;;;;;;;;;;;5136531;27;992;-72
2023/12/02 10:55:30;;;;;;;;;;;;;;;;;;5118167;27;1898;-72
2023/12/02 10:57:57;;;;;;;;;;;;;;;;;;5117756;27;1168;-72
2023/12/02 11:00:23;;;;;;;;;;;;;;;;;;5118064;27;1256;-70
2023/12/02 11:02:57;;;;;;;;;;;;;;;;;;5136833;27;832;-70
2023/12/02 11:05:23;;;;;;;;;;;;;;;;;;5136363;27;809;-71
2023/12/02 11:07:51;;;;;;;;;;;;;;;;;;5135891;27;1069;-70
2023/12/02 11:10:19;;;;;;;;;;;;;;;;;;5135749;27;978;-71
2023/12/02 11:12:51;;;;;;;;;;;;;;;;;;5136255;27;923;-71
2023/12/02 11:15:20;;;;;;;;;;;;;;;;;;5117290;27;1902;-71
2023/12/02 11:17:48;;;;;;;;;;;;;;;;;;5136368;27;843;-71
2023/12/02 11:20:21;;;;;;;;;;;;;;;;;;5136277;27;982;-71
2023/12/02 11:22:59;;;;;;;;;;;;;;;;;;5117574;27;1227;-71
2023/12/02 11:25:24;;;;;;;;;;;;;;;;;;5135956;27;939;-71
2023/12/02 11:27:55;;;;;;;;;;;;;;;;;;5136261;27;942;-71
2023/12/02 11:30:34;;;;;;;;;;;;;;;;;;5135792;27;844;-70
2023/12/02 11:33:26;;;;;;;;;;;;;;;;;;5135763;27;888;-70
2023/12/02 11:36:03;;;;;;;;;;;;;;;;;;5078906;27;1890;-71
2023/12/02 11:38:30;;;;;;;;;;;;;;;;;;5132741;27;1230;-70
2023/12/02 11:41:11;;;;;;;;;;;;;;;;;;5131789;27;1198;-70
2023/12/02 11:43:38;;;;;;;;;;;;;;;;;;5131154;27;1124;-71
2023/12/02 11:46:04;;;;;;;;;;;;;;;;;;5114501;27;1144;-71
2023/12/02 11:48:32;;;;;;;;;;;;;;;;;;5132406;27;1274;-70
2023/12/02 11:50:57;;;;;;;;;;;;;;;;;;5132375;27;1128;-71
2023/12/02 11:53:28;;;;;;;;;;;;;;;;;;5131619;27;1159;-70
2023/12/02 11:56:09;;;;;;;;;;;;;;;;;;5132415;27;1957;-66
2023/12/02 11:58:45;;;;;;;;;;;;;;;;;;5114134;27;1517;-66
2023/12/02 12:01:10;;;;;;;;;;;;;;;;;;5132503;27;1080;-66
2023/12/02 12:03:41;;;;;;;;;;;;;;;;;;5114172;27;1291;-66
2023/12/02 12:06:07;;;;;;;;;;;;;;;;;;5115507;28;1003;-67
2023/12/02 12:08:41;;;;;;;;;;;;;;;;;;5120820;27;1125;-68
2023/12/02 12:11:10;;;;;;;;;;;;;;;;;;5135373;27;1089;-68
2023/12/02 12:13:36;;;;;;;;;;;;;;;;;;5116900;27;1287;-68
2023/12/02 12:16:01;;;;;;;;;;;;;;;;;;5117057;27;1964;-66
2023/12/02 12:18:26;;;;;;;;;;;;;;;;;;5100379;27;1348;-70
2023/12/02 12:20:55;;;;;;;;;;;;;;;;;;5135119;27;883;-71
2023/12/02 12:23:28;;;;;;;;;;;;;;;;;;5135059;27;847;-71
2023/12/02 12:25:53;;;;;;;;;;;;;;;;;;5134357;27;859;-71
2023/12/02 12:28:18;;;;;;;;;;;;;;;;;;5135466;27;807;-71
2023/12/02 12:30:45;;;;;;;;;;;;;;;;;;5117126;28;1297;-71
2023/12/02 12:33:12;;;;;;;;;;;;;;;;;;5135334;27;840;-72
2023/12/02 12:35:38;;;;;;;;;;;;;;;;;;5135325;27;1901;-71
2023/12/02 12:38:04;;;;;;;;;;;;;;;;;;5135621;27;879;-72
2023/12/02 12:40:32;;;;;;;;;;;;;;;;;;5116548;28;1590;-72
2023/12/02 12:42:57;;;;;;;;;;;;;;;;;;5135228;28;907;-71
2023/12/02 12:45:23;;;;;;;;;;;;;;;;;;5135501;27;959;-72
2023/12/02 12:47:49;;;;;;;;;;;;;;;;;;5134772;28;902;-71
2023/12/02 12:50:15;;;;;;;;;;;;;;;;;;5116083;27;1131;-71
2023/12/02 12:52:50;;;;;;;;;;;;;;;;;;5134805;28;827;-71
2023/12/02 12:55:21;;;;;;;;;;;;;;;;;;5116539;28;1899;-71
2023/12/02 12:57:47;;;;;;;;;;;;;;;;;;5134682;28;1013;-71
2023/12/02 13:00:13;;;;;;;;;;;;;;;;;;5134773;27;863;-71
2023/12/02 13:02:54;;;;;;;;;;;;;;;;;;5135072;28;792;-71
2023/12/02 13:05:21;;;;;;;;;;;;;;;;;;5116504;28;1625;-71
2023/12/02 13:07:49;;;;;;;;;;;;;;;;;;5134658;27;913;-71
2023/12/02 13:10:16;;;;;;;;;;;;;;;;;;5134960;27;941;-71
2023/12/02 13:12:42;;;;;;;;;;;;;;;;;;5115547;28;1240;-71
2023/12/02 13:15:10;;;;;;;;;;;;;;;;;;5116529;27;1964;-71
2023/12/02 13:17:41;;;;;;;;;;;;;;;;;;5134656;27;946;-71
2023/12/02 13:20:08;;;;;;;;;;;;;;;;;;5135150;27;926;-72
2023/12/02 13:22:33;;;;;;;;;;;;;;;;;;5116466;28;1347;-71
2023/12/02 13:25:12;;;;;;;;;;;;;;;;;;5134387;27;890;-71
2023/12/02 13:27:38;;;;;;;;;;;;;;;;;;5134554;27;894;-71
2023/12/02 13:30:04;;;;;;;;;;;;;;;;;;5134457;27;899;-71
2023/12/02 13:32:30;;;;;;;;;;;;;;;;;;5134931;28;991;-71
2023/12/02 13:35:06;;;;;;;;;;;;;;;;;;5134849;27;870;-71
2023/12/02 13:37:54;;;;;;;;;;;;;;;;;;5136070;27;847;-71
2023/12/02 13:40:23;;;;;;;;;;;;;;;;;;5124720;27;1149;-70
2023/12/02 13:42:49;;;;;;;;;;;;;;;;;;5138737;27;824;-71
2023/12/02 13:45:17;;;;;;;;;;;;;;;;;;5120403;27;946;-71
2023/12/02 13:48:01;;;;;;;;;;;;;;;;;;5138436;27;860;-72
2023/12/02 13:50:31;;;;;;;;;;;;;;;;;;5138398;27;840;-71
2023/12/02 13:53:07;;;;;;;;;;;;;;;;;;5138367;27;927;-70
2023/12/02 13:55:44;;;;;;;;;;;;;;;;;;5137872;27;1953;-70
2023/12/02 13:58:20;;;;;;;;;;;;;;;;;;5138358;27;970;-71
2023/12/02 14:01:04;;;;;;;;;;;;;;;;;;5119707;27;1202;-71
2023/12/02 14:03:32;;;;;;;;;;;;;;;;;;5138021;27;839;-71
2023/12/02 14:06:01;;;;;;;;;;;;;;;;;;5119614;27;1152;-71
2023/12/02 14:08:32;;;;;;;;;;;;;;;;;;5138024;27;987;-70
2023/12/02 14:10:58;;;;;;;;;;;;;;;;;;5137643;27;891;-70
2023/12/02 14:13:32;;;;;;;;;;;;;;;;;;5137513;27;1044;-71
2023/12/02 14:16:13;;;;;;;;;;;;;;;;;;5137695;27;1902;-71
2023/12/02 14:19:01;;;;;;;;;;;;;;;;;;5137664;27;1002;-71
2023/12/02 14:21:45;;;;;;;;;;;;;;;;;;5121040;27;1361;-71
2023/12/02 14:24:26;;;;;;;;;;;;;;;;;;5137517;27;839;-71
2023/12/02 14:27:09;;;;;;;;;;;;;;;;;;5137748;27;855;-71
2023/12/02 14:29:38;;;;;;;;;;;;;;;;;;5137907;27;1009;-71
2023/12/02 14:32:23;;;;;;;;;;;;;;;;;;5119163;27;1452;-71
2023/12/02 14:34:53;;;;;;;;;;;;;;;;;;5137365;27;879;-70
2023/12/02 14:37:31;;;;;;;;;;;;;;;;;;5137148;27;1902;-70
2023/12/02 14:39:59;;;;;;;;;;;;;;;;;;5136609;27;852;-71
2023/12/02 14:42:32;;;;;;;;;;;;;;;;;;5136642;27;816;-71
2023/12/02 14:44:57;;;;;;;;;;;;;;;;;;5136776;27;1069;-71
2023/12/02 14:47:23;;;;;;;;;;;;;;;;;;5136941;27;891;-70
2023/12/02 14:49:49;;;;;;;;;;;;;;;;;;5135581;27;883;-70
2023/12/02 14:52:25;;;;;;;;;;;;;;;;;;5136923;27;792;-70
2023/12/02 14:54:50;;;;;;;;;;;;;;;;;;5118434;27;1288;-69
2023/12/02 14:57:16;;;;;;;;;;;;;;;;;;5118452;27;1953;-71
2023/12/02 14:59:50;;;;;;;;;;;;;;;;;;5136843;27;835;-72
2023/12/02 15:02:48;;;;;;;;;;;;;;;;;;5118713;27;1108;-71
2023/12/02 15:05:14;;;;;;;;;;;;;;;;;;5079580;27;1222;-71
2023/12/02 15:07:42;;;;;;;;;;;;;;;;;;5136636;27;868;-72
2023/12/02 15:10:11;;;;;;;;;;;;;;;;;;5136630;27;1025;-72
2023/12/02 15:12:41;;;;;;;;;;;;;;;;;;5136851;27;867;-71
2023/12/02 15:15:07;;;;;;;;;;;;;;;;;;5136225;27;1890;-71
2023/12/02 15:17:34;;;;;;;;;;;;;;;;;;5136942;27;847;-71
2023/12/02 15:20:00;;;;;;;;;;;;;;;;;;5136000;27;1108;-70
2023/12/02 15:22:26;;;;;;;;;;;;;;;;;;5118359;27;817;-71
2023/12/02 15:24:51;;;;;;;;;;;;;;;;;;5117575;27;1186;-70
2023/12/02 15:27:17;;;;;;;;;;;;;;;;;;5136260;27;840;-70
2023/12/02 15:29:42;;;;;;;;;;;;;;;;;;5118011;27;836;-71
2023/12/02 15:32:10;;;;;;;;;;;;;;;;;;5117808;27;1342;-71
2023/12/02 15:34:35;;;;;;;;;;;;;;;;;;5136513;27;871;-71
2023/12/02 15:37:01;;;;;;;;;;;;;;;;;;5136510;27;1969;-71
2023/12/02 15:39:26;;;;;;;;;;;;;;;;;;5136490;27;824;-71
2023/12/02 15:41:52;;;;;;;;;;;;;;;;;;5136288;27;907;-71
2023/12/02 15:44:17;;;;;;;;;;;;;;;;;;5117643;27;1708;-70
2023/12/02 15:46:44;;;;;;;;;;;;;;;;;;5136147;27;1078;-71
2023/12/02 15:49:10;;;;;;;;;;;;;;;;;;5135845;27;880;-71
2023/12/02 15:51:36;;;;;;;;;;;;;;;;;;5136397;27;825;-71
2023/12/02 15:54:03;;;;;;;;;;;;;;;;;;5135643;27;862;-70
2023/12/02 15:56:30;;;;;;;;;;;;;;;;;;5117447;27;1918;-71
2023/12/02 15:58:57;;;;;;;;;;;;;;;;;;5116667;27;1432;-70
2023/12/02 16:01:24;;;;;;;;;;;;;;;;;;5135537;27;658;-71
2023/12/02 16:03:50;;;;;;;;;;;;;;;;;;5134979;27;879;-70
2023/12/02 16:06:20;;;;;;;;;;;;;;;;;;5135288;27;827;-71
2023/12/02 16:08:47;;;;;;;;;;;;;;;;;;5135708;27;891;-70
2023/12/02 16:11:14;;;;;;;;;;;;;;;;;;5116948;27;1116;-70
2023/12/02 16:13:42;;;;;;;;;;;;;;;;;;5135309;27;1029;-71
2023/12/02 16:16:12;;;;;;;;;;;;;;;;;;5116067;27;1890;-71
2023/12/02 16:18:38;;;;;;;;;;;;;;;;;;5135459;27;962;-71
2023/12/02 16:21:09;;;;;;;;;;;;;;;;;;5134832;27;998;-72
2023/12/02 16:23:37;;;;;;;;;;;;;;;;;;5116400;27;1139;-71
2023/12/02 16:26:02;;;;;;;;;;;;;;;;;;5117907;27;773;-70
2023/12/02 16:28:28;;;;;;;;;;;;;;;;;;5113275;27;1222;-70
2023/12/02 16:30:55;;;;;;;;;;;;;;;;;;5131229;27;1166;-70
2023/12/02 16:33:21;;;;;;;;;;;;;;;;;;5131126;27;1143;-70
2023/12/02 16:35:46;;;;;;;;;;;;;;;;;;5135452;27;1972;-70
2023/12/02 16:38:13;;;;;;;;;;;;;;;;;;5116693;28;1302;-72
2023/12/02 16:40:38;;;;;;;;;;;;;;;;;;5117177;28;1400;-73
2023/12/02 16:43:03;;;;;;;;;;;;;;;;;;5134681;28;871;-72
2023/12/02 16:45:29;;;;;;;;;;;;;;;;;;5134878;28;993;-72
2023/12/02 16:47:55;;;;;;;;;;;;;;;;;;5134613;28;835;-71
2023/12/02 16:50:23;;;;;;;;;;;;;;;;;;5134959;28;871;-71
2023/12/02 16:52:52;;;;;;;;;;;;;;;;;;5116344;28;1381;-71
2023/12/02 16:55:18;;;;;;;;;;;;;;;;;;5134487;28;1906;-71
2023/12/02 16:57:47;;;;;;;;;;;;;;;;;;5134764;28;990;-72
2023/12/02 17:00:16;;;;;;;;;;;;;;;;;;5134862;28;902;-72
2023/12/02 17:02:43;;;;;;;;;;;;;;;;;;5135083;28;895;-71
2023/12/02 17:05:28;;;;;;;;;;;;;;;;;;5117425;28;856;-72
2023/12/02 17:07:59;;;;;;;;;;;;;;;;;;5134616;28;982;-71
2023/12/02 17:10:34;;;;;;;;;;;;;;;;;;5116606;28;1495;-72
2023/12/02 17:12:59;;;;;;;;;;;;;;;;;;5137301;27;1023;-72